Terminal Aerodrome Forecast
Issued by NWS Sterling, VA

Current Version | Previous Version | Graphics & Text | Print | Product List | Glossary On
Versions: 1 2 3 4 5 6 7 8 9 10 11 12 13 14 15 16 17 18 19 20 21 22 23 24 25 26 27 28 29 30
320
FTUS41 KLWX 282332
TAFIAD
TAF
KIAD 282332Z 2900/3006 34004KT P6SM BKN040 BKN080
     FM290200 34005KT P6SM BKN030 BKN080
     FM290600 36006KT 4SM BR OVC015
     FM291100 36007KT 6SM BR BKN035
     FM291300 35009KT P6SM SCT200
     FM300400 03006KT P6SM SCT250=

USA.gov is the U.S. government's official web portal to all federal, state and local government web resources and services.